Terminal Aerodrome Forecast
Issued by NWS

Home | Current Version | Previous Version | Text Only | Print | Product List | Glossary On
Versions: 1 2 3 4 5 6 7 8 9 10 11 12 13 14 15
000
FTUS46 KMTR 221203 AAA
TAFOAK
TAF AMD
KOAK 221203Z 2212/2318 VRB04KT P6SM FEW200
      TEMPO 2212/2215 4SM BR
     FM221900 29009KT P6SM BKN250
     FM230300 33004KT P6SM OVC200
     FM230700 01005KT P6SM OVC200
     FM231200 34004KT P6SM BKN040 BKN200=

USA.gov is the U.S. government's official web portal to all federal, state and local government web resources and services.